createdAt,value
2023-04-10T00:00:15.000Z,94
2023-04-10T00:01:42.000Z,94
2023-04-10T00:03:48.000Z,94
2023-04-10T00:06:40.000Z,94
2023-04-10T00:08:06.000Z,95
2023-04-10T00:10:13.000Z,94
2023-04-10T00:11:39.000Z,95
2023-04-10T00:13:45.000Z,94
2023-04-10T00:15:12.000Z,95
2023-04-10T00:17:18.000Z,95
2023-04-10T00:18:44.000Z,95
2023-04-10T00:20:50.000Z,95
2023-04-10T00:22:17.000Z,95
2023-04-10T00:24:23.000Z,95
2023-04-10T00:25:50.000Z,95
2023-04-10T00:27:56.000Z,94
2023-04-10T00:29:22.000Z,94
2023-04-10T00:31:29.000Z,94
2023-04-10T00:32:55.000Z,95
2023-04-10T00:35:01.000Z,94
2023-04-10T00:36:28.000Z,95
2023-04-10T00:38:34.000Z,95
2023-04-10T00:40:01.000Z,94
2023-04-10T00:42:07.000Z,95
2023-04-10T00:44:58.000Z,94
2023-04-10T00:46:24.000Z,95
2023-04-10T00:48:31.000Z,95
2023-04-10T00:49:57.000Z,94
2023-04-10T00:52:03.000Z,95
2023-04-10T00:53:30.000Z,94
2023-04-10T00:55:36.000Z,94
2023-04-10T00:57:02.000Z,95
2023-04-10T00:59:08.000Z,95
2023-04-10T01:00:35.000Z,94
2023-04-10T01:02:41.000Z,94
2023-04-10T01:04:08.000Z,94
2023-04-10T01:06:14.000Z,95
2023-04-10T01:07:40.000Z,94
2023-04-10T01:09:47.000Z,94
2023-04-10T01:11:13.000Z,94
2023-04-10T01:13:19.000Z,95
2023-04-10T01:14:46.000Z,96
2023-04-10T01:16:52.000Z,95
2023-04-10T01:18:18.000Z,94
2023-04-10T01:20:25.000Z,95
2023-04-10T01:23:16.000Z,95
2023-04-10T01:24:42.000Z,95
2023-04-10T01:26:48.000Z,95
2023-04-10T01:28:15.000Z,95
2023-04-10T01:30:21.000Z,95
2023-04-10T01:31:47.000Z,95
2023-04-10T01:33:53.000Z,95
2023-04-10T01:35:20.000Z,95
2023-04-10T01:37:27.000Z,95
2023-04-10T01:38:52.000Z,96
2023-04-10T01:40:58.000Z,96
2023-04-10T01:42:22.000Z,96
2023-04-10T01:44:27.000Z,96
2023-04-10T01:45:53.000Z,96
2023-04-10T01:48:00.000Z,96
2023-04-10T01:49:24.000Z,96
2023-04-10T01:51:30.000Z,96
2023-04-10T01:52:56.000Z,96
2023-04-10T01:54:59.000Z,96
2023-04-10T01:56:24.000Z,96
2023-04-10T01:58:30.000Z,96
2023-04-10T02:01:19.000Z,95
2023-04-10T02:02:53.000Z,96
2023-04-10T02:04:58.000Z,96
2023-04-10T02:06:23.000Z,96
2023-04-10T02:08:26.000Z,95
2023-04-10T02:09:51.000Z,96
2023-04-10T02:11:55.000Z,96
2023-04-10T02:13:19.000Z,96
2023-04-10T02:15:23.000Z,96
2023-04-10T02:16:47.000Z,97
2023-04-10T02:18:51.000Z,96
2023-04-10T02:20:16.000Z,95
2023-04-10T02:22:19.000Z,96
2023-04-10T02:23:43.000Z,95
2023-04-10T02:25:47.000Z,95
2023-04-10T02:27:12.000Z,95
2023-04-10T02:29:15.000Z,95
2023-04-10T02:30:39.000Z,95
2023-04-10T02:32:43.000Z,95
2023-04-10T02:34:07.000Z,95
2023-04-10T02:36:11.000Z,96
2023-04-10T02:39:00.000Z,95
2023-04-10T02:40:25.000Z,95
2023-04-10T02:42:28.000Z,96
2023-04-10T02:43:53.000Z,96
2023-04-10T02:45:57.000Z,95
2023-04-10T02:47:21.000Z,96
2023-04-10T02:49:25.000Z,96
2023-04-10T02:50:49.000Z,96
2023-04-10T02:52:53.000Z,96
2023-04-10T02:54:17.000Z,96
2023-04-10T02:56:21.000Z,96
2023-04-10T02:57:45.000Z,97
2023-04-10T02:59:49.000Z,98
2023-04-10T03:01:13.000Z,97
2023-04-10T03:03:17.000Z,97
2023-04-10T03:04:41.000Z,96
2023-04-10T03:06:45.000Z,96
2023-04-10T03:08:09.000Z,96
2023-04-10T03:10:13.000Z,97
2023-04-10T03:11:37.000Z,96
2023-04-10T03:13:41.000Z,96
2023-04-10T03:16:30.000Z,96
2023-04-10T03:17:54.000Z,97
2023-04-10T03:19:58.000Z,96
2023-04-10T03:21:22.000Z,97
2023-04-10T03:23:26.000Z,97
2023-04-10T03:24:50.000Z,97
2023-04-10T03:26:54.000Z,97
2023-04-10T03:28:18.000Z,97
2023-04-10T03:30:22.000Z,97
2023-04-10T03:31:46.000Z,98
2023-04-10T03:33:50.000Z,97
2023-04-10T03:35:14.000Z,97
2023-04-10T03:37:18.000Z,97
2023-04-10T03:38:42.000Z,97
2023-04-10T03:40:46.000Z,96
2023-04-10T03:42:10.000Z,96
2023-04-10T03:44:14.000Z,97
2023-04-10T03:45:38.000Z,97
2023-04-10T03:47:41.000Z,97
2023-04-10T03:49:06.000Z,97
2023-04-10T03:51:10.000Z,97
2023-04-10T03:53:59.000Z,97
2023-04-10T03:55:23.000Z,97
2023-04-10T03:57:27.000Z,97
2023-04-10T03:58:51.000Z,97
2023-04-10T04:00:54.000Z,97
2023-04-10T04:02:19.000Z,97
2023-04-10T04:04:22.000Z,97
2023-04-10T04:05:47.000Z,98
2023-04-10T04:07:50.000Z,98
2023-04-10T04:09:15.000Z,97
2023-04-10T04:11:18.000Z,97
2023-04-10T04:12:43.000Z,97
2023-04-10T04:14:46.000Z,98
2023-04-10T04:16:10.000Z,98
2023-04-10T04:18:14.000Z,98
2023-04-10T04:19:38.000Z,98
2023-04-10T04:21:42.000Z,98
2023-04-10T04:23:06.000Z,97
2023-04-10T04:25:10.000Z,97
2023-04-10T04:26:34.000Z,97
2023-04-10T04:28:38.000Z,97
2023-04-10T04:31:27.000Z,97
2023-04-10T04:32:52.000Z,97
2023-04-10T04:34:55.000Z,97
2023-04-10T04:36:20.000Z,97
2023-04-10T04:38:23.000Z,98
2023-04-10T04:39:47.000Z,97
2023-04-10T04:41:51.000Z,98
2023-04-10T04:43:15.000Z,97
2023-04-10T04:45:19.000Z,98
2023-04-10T04:46:43.000Z,98
2023-04-10T04:48:48.000Z,97
2023-04-10T04:50:12.000Z,98
2023-04-10T04:52:16.000Z,98
2023-04-10T04:53:40.000Z,97
2023-04-10T04:55:44.000Z,97
2023-04-10T04:57:08.000Z,97
2023-04-10T04:59:12.000Z,97
2023-04-10T05:00:36.000Z,98
2023-04-10T05:02:39.000Z,98
2023-04-10T05:04:04.000Z,98
2023-04-10T05:06:08.000Z,98
2023-04-10T05:08:57.000Z,98
2023-04-10T05:10:22.000Z,98
2023-04-10T05:12:25.000Z,98
2023-04-10T05:13:50.000Z,97
2023-04-10T05:15:53.000Z,97
2023-04-10T05:17:18.000Z,97
2023-04-10T05:19:21.000Z,97
2023-04-10T05:20:46.000Z,98
2023-04-10T05:22:49.000Z,99
2023-04-10T05:24:14.000Z,98
2023-04-10T05:26:17.000Z,98
2023-04-10T05:27:41.000Z,98
2023-04-10T05:29:45.000Z,98
2023-04-10T05:31:09.000Z,98
2023-04-10T05:33:13.000Z,98
2023-04-10T05:34:37.000Z,99
2023-04-10T05:36:41.000Z,100
2023-04-10T05:38:05.000Z,98
2023-04-10T05:40:09.000Z,99
2023-04-10T05:41:33.000Z,98
2023-04-10T05:43:36.000Z,98
2023-04-10T05:46:26.000Z,98
2023-04-10T05:47:50.000Z,98
2023-04-10T05:49:54.000Z,97
2023-04-10T05:51:18.000Z,97
2023-04-10T05:53:24.000Z,97
2023-04-10T05:54:49.000Z,97
2023-04-10T05:56:53.000Z,98
2023-04-10T05:58:20.000Z,97
2023-04-10T06:00:26.000Z,96
2023-04-10T06:01:53.000Z,96
2023-04-10T06:03:59.000Z,96
2023-04-10T06:05:25.000Z,96
2023-04-10T06:07:32.000Z,96
2023-04-10T06:08:58.000Z,97
2023-04-10T06:11:04.000Z,97
2023-04-10T06:12:31.000Z,97
2023-04-10T06:14:37.000Z,97
2023-04-10T06:16:03.000Z,96
2023-04-10T06:18:10.000Z,95
2023-04-10T06:19:36.000Z,95
2023-04-10T06:21:42.000Z,96
2023-04-10T06:24:34.000Z,96
2023-04-10T06:26:00.000Z,94
2023-04-10T06:28:07.000Z,95
2023-04-10T06:29:33.000Z,94
2023-04-10T06:31:39.000Z,94
2023-04-10T06:33:06.000Z,94
2023-04-10T06:35:12.000Z,94
2023-04-10T06:36:38.000Z,93
2023-04-10T06:38:45.000Z,93
2023-04-10T06:40:11.000Z,93
2023-04-10T06:42:17.000Z,92
2023-04-10T06:43:44.000Z,93
2023-04-10T06:45:50.000Z,93
2023-04-10T06:47:16.000Z,92
2023-04-10T06:49:23.000Z,92
2023-04-10T06:50:49.000Z,92
2023-04-10T06:52:55.000Z,92
2023-04-10T06:54:22.000Z,92
2023-04-10T06:56:28.000Z,91
2023-04-10T06:57:54.000Z,91
2023-04-10T07:00:01.000Z,91
2023-04-10T07:02:52.000Z,90
2023-04-10T07:04:19.000Z,90
2023-04-10T07:06:25.000Z,90
2023-04-10T07:07:51.000Z,90
2023-04-10T07:09:57.000Z,91
2023-04-10T07:11:24.000Z,91
2023-04-10T07:13:30.000Z,90
2023-04-10T07:14:57.000Z,91
2023-04-10T07:17:03.000Z,90
2023-04-10T07:18:29.000Z,90
2023-04-10T07:20:36.000Z,90
2023-04-10T07:22:02.000Z,90
2023-04-10T07:24:08.000Z,90
2023-04-10T07:25:35.000Z,91
2023-04-10T07:27:41.000Z,90
2023-04-10T07:29:07.000Z,90
2023-04-10T07:31:13.000Z,92
2023-04-10T07:32:40.000Z,92
2023-04-10T07:34:47.000Z,90
2023-04-10T07:36:13.000Z,90
2023-04-10T07:38:19.000Z,90
2023-04-10T07:41:10.000Z,90
2023-04-10T07:42:37.000Z,90
2023-04-10T07:44:43.000Z,89
2023-04-10T07:46:10.000Z,89
2023-04-10T07:48:16.000Z,89
2023-04-10T07:49:42.000Z,88
2023-04-10T07:51:48.000Z,88
2023-04-10T07:53:15.000Z,88
2023-04-10T07:55:21.000Z,87
2023-04-10T07:56:48.000Z,87
2023-04-10T07:58:54.000Z,87
2023-04-10T08:00:21.000Z,87
2023-04-10T08:02:27.000Z,87
2023-04-10T08:03:54.000Z,87
2023-04-10T08:06:00.000Z,87
2023-04-10T08:07:27.000Z,88
2023-04-10T08:09:33.000Z,87
2023-04-10T08:10:59.000Z,87
2023-04-10T08:13:05.000Z,87
2023-04-10T08:14:32.000Z,87
2023-04-10T08:16:38.000Z,88
2023-04-10T08:19:29.000Z,88
2023-04-10T08:20:56.000Z,86
2023-04-10T08:23:02.000Z,85
2023-04-10T08:24:46.000Z,86
2023-04-10T08:26:52.000Z,85
2023-04-10T08:28:19.000Z,85
2023-04-10T08:30:25.000Z,85
2023-04-10T08:31:51.000Z,85
2023-04-10T08:33:57.000Z,84
2023-04-10T08:35:25.000Z,85
2023-04-10T08:37:31.000Z,83
2023-04-10T08:38:58.000Z,83
2023-04-10T08:41:04.000Z,82
2023-04-10T08:42:30.000Z,81
2023-04-10T08:44:37.000Z,81
2023-04-10T08:46:03.000Z,80
2023-04-10T08:48:09.000Z,75
2023-04-10T08:49:36.000Z,77
2023-04-10T08:51:42.000Z,76
2023-04-10T08:53:08.000Z,76
2023-04-10T08:55:15.000Z,75
2023-04-10T08:58:05.000Z,70
2023-04-10T08:59:32.000Z,70
2023-04-10T09:01:38.000Z,69
2023-04-10T09:03:05.000Z,69
2023-04-10T09:05:11.000Z,69
2023-04-10T09:06:37.000Z,69
2023-04-10T09:08:44.000Z,67
2023-04-10T09:10:10.000Z,68
2023-04-10T09:12:16.000Z,69
2023-04-10T09:13:43.000Z,69
2023-04-10T09:15:49.000Z,66
2023-04-10T09:17:16.000Z,68
2023-04-10T09:19:22.000Z,69
2023-04-10T09:20:48.000Z,67
2023-04-10T09:22:54.000Z,66
2023-04-10T09:24:21.000Z,65
2023-04-10T09:26:27.000Z,65
2023-04-10T09:27:54.000Z,66
2023-04-10T09:30:00.000Z,65
2023-04-10T09:31:26.000Z,67
2023-04-10T09:33:33.000Z,66
2023-04-10T09:36:24.000Z,64
2023-04-10T09:37:50.000Z,60
2023-04-10T09:39:56.000Z,61
2023-04-10T09:41:23.000Z,64
2023-04-10T09:43:29.000Z,63
2023-04-10T09:44:56.000Z,63
2023-04-10T09:47:02.000Z,64
2023-04-10T09:48:29.000Z,60
2023-04-10T09:50:35.000Z,61
2023-04-10T09:52:06.000Z,61
2023-04-10T09:54:12.000Z,59
2023-04-10T09:55:38.000Z,61
2023-04-10T09:57:45.000Z,58
2023-04-10T09:59:11.000Z,59
2023-04-10T10:01:17.000Z,57
2023-04-10T10:02:44.000Z,57
2023-04-10T10:04:50.000Z,57
2023-04-10T10:06:17.000Z,57
2023-04-10T10:08:23.000Z,60
2023-04-10T10:09:49.000Z,60
2023-04-10T10:11:55.000Z,60
2023-04-10T10:14:47.000Z,60
2023-04-10T10:16:13.000Z,59
2023-04-10T10:18:19.000Z,56
2023-04-10T10:19:46.000Z,57
2023-04-10T10:21:52.000Z,55
2023-04-10T10:23:18.000Z,57
2023-04-10T10:25:24.000Z,54
2023-04-10T10:26:51.000Z,53
2023-04-10T10:28:57.000Z,56
2023-04-10T10:30:24.000Z,54
2023-04-10T10:32:36.000Z,56
2023-04-10T10:34:03.000Z,56
2023-04-10T10:36:09.000Z,55
2023-04-10T10:37:35.000Z,56
2023-04-10T10:39:41.000Z,51
2023-04-10T10:41:08.000Z,53
2023-04-10T10:43:14.000Z,53
2023-04-10T10:44:41.000Z,50
2023-04-10T10:46:47.000Z,54
2023-04-10T10:48:13.000Z,52
2023-04-10T10:50:19.000Z,52
2023-04-10T10:53:11.000Z,54
2023-04-10T10:54:38.000Z,55
2023-04-10T10:56:56.000Z,54
2023-04-10T10:58:22.000Z,50
2023-04-10T11:00:28.000Z,53
2023-04-10T11:01:55.000Z,52
2023-04-10T11:04:01.000Z,53
2023-04-10T11:05:28.000Z,54
2023-04-10T11:07:34.000Z,54
2023-04-10T11:09:00.000Z,52
2023-04-10T11:11:06.000Z,50
2023-04-10T11:12:33.000Z,53
2023-04-10T11:14:39.000Z,53
2023-04-10T11:16:06.000Z,53
2023-04-10T11:18:12.000Z,52
2023-04-10T11:19:38.000Z,52
2023-04-10T11:21:44.000Z,52
2023-04-10T11:23:11.000Z,51
2023-04-10T11:25:17.000Z,51
2023-04-10T11:26:43.000Z,51
2023-04-10T11:28:50.000Z,51
2023-04-10T11:31:41.000Z,49
2023-04-10T11:33:07.000Z,50
2023-04-10T11:35:14.000Z,47
2023-04-10T11:36:40.000Z,47
2023-04-10T11:38:46.000Z,48
2023-04-10T11:40:13.000Z,47
2023-04-10T11:42:19.000Z,47
2023-04-10T11:43:45.000Z,47
2023-04-10T11:45:52.000Z,47
2023-04-10T11:47:18.000Z,45
2023-04-10T11:49:24.000Z,46
2023-04-10T11:50:51.000Z,45
2023-04-10T11:52:57.000Z,47
2023-04-10T11:54:23.000Z,49
2023-04-10T11:56:30.000Z,48
2023-04-10T11:57:56.000Z,49
2023-04-10T12:00:02.000Z,49
2023-04-10T12:01:29.000Z,49
2023-04-10T12:03:35.000Z,51
2023-04-10T12:05:02.000Z,50
2023-04-10T12:07:08.000Z,50
2023-04-10T12:09:59.000Z,50
2023-04-10T12:11:26.000Z,49
2023-04-10T12:13:32.000Z,49
2023-04-10T12:14:58.000Z,47
2023-04-10T12:17:05.000Z,48
2023-04-10T12:18:31.000Z,45
2023-04-10T12:20:37.000Z,46
2023-04-10T12:22:04.000Z,46
2023-04-10T12:24:10.000Z,47
2023-04-10T12:25:36.000Z,46
2023-04-10T12:27:42.000Z,48
2023-04-10T12:29:09.000Z,50
2023-04-10T12:31:15.000Z,48
2023-04-10T12:32:41.000Z,48
2023-04-10T12:34:48.000Z,47
2023-04-10T12:36:14.000Z,48
2023-04-10T12:38:20.000Z,46
2023-04-10T12:39:47.000Z,47
2023-04-10T12:41:53.000Z,46
2023-04-10T12:43:20.000Z,46
2023-04-10T12:45:26.000Z,48
2023-04-10T12:48:17.000Z,49
2023-04-10T12:49:43.000Z,46
2023-04-10T12:51:50.000Z,49
2023-04-10T12:53:16.000Z,46
2023-04-10T12:55:22.000Z,47
2023-04-10T12:56:49.000Z,47
2023-04-10T12:58:55.000Z,47
2023-04-10T13:00:22.000Z,49
2023-04-10T13:02:28.000Z,48
2023-04-10T13:03:55.000Z,45
2023-04-10T13:06:01.000Z,48
2023-04-10T13:07:27.000Z,49
2023-04-10T13:09:33.000Z,47
2023-04-10T13:11:00.000Z,48
2023-04-10T13:13:06.000Z,46
2023-04-10T13:14:33.000Z,46
2023-04-10T13:16:39.000Z,48
2023-04-10T13:18:06.000Z,47
2023-04-10T13:20:12.000Z,46
2023-04-10T13:21:39.000Z,47
2023-04-10T13:23:45.000Z,50
2023-04-10T13:26:36.000Z,48
2023-04-10T13:28:02.000Z,49
2023-04-10T13:30:09.000Z,48
2023-04-10T13:31:35.000Z,47
2023-04-10T13:33:42.000Z,47
2023-04-10T13:35:08.000Z,47
2023-04-10T13:37:14.000Z,48
2023-04-10T13:38:41.000Z,49
2023-04-10T13:40:47.000Z,46
2023-04-10T13:42:13.000Z,45
2023-04-10T13:44:19.000Z,44
2023-04-10T13:45:46.000Z,43
2023-04-10T13:47:52.000Z,46
2023-04-10T13:49:18.000Z,46
2023-04-10T13:51:24.000Z,46
2023-04-10T13:52:51.000Z,44
2023-04-10T13:54:59.000Z,43
2023-04-10T13:56:26.000Z,43
2023-04-10T13:58:32.000Z,42
2023-04-10T13:59:58.000Z,43
2023-04-10T14:02:05.000Z,43
2023-04-10T14:04:56.000Z,45
2023-04-10T14:06:23.000Z,44
2023-04-10T14:08:29.000Z,44
2023-04-10T14:09:55.000Z,45
2023-04-10T14:12:01.000Z,43
2023-04-10T14:13:28.000Z,44
2023-04-10T14:15:34.000Z,42
2023-04-10T14:17:00.000Z,42
2023-04-10T14:19:07.000Z,43
2023-04-10T14:20:33.000Z,44
2023-04-10T14:22:39.000Z,45
2023-04-10T14:24:06.000Z,42
2023-04-10T14:26:12.000Z,42
2023-04-10T14:27:38.000Z,41
2023-04-10T14:29:44.000Z,43
2023-04-10T14:31:21.000Z,44
2023-04-10T14:33:27.000Z,43
2023-04-10T14:34:54.000Z,44
2023-04-10T14:37:00.000Z,41
2023-04-10T14:38:27.000Z,43
2023-04-10T14:40:33.000Z,42
2023-04-10T14:43:24.000Z,42
2023-04-10T14:44:50.000Z,44
2023-04-10T14:46:56.000Z,43
2023-04-10T14:48:23.000Z,45
2023-04-10T14:50:29.000Z,44
2023-04-10T14:51:56.000Z,42
2023-04-10T14:54:02.000Z,43
2023-04-10T14:55:28.000Z,42
2023-04-10T14:57:34.000Z,43
2023-04-10T14:59:01.000Z,44
2023-04-10T15:01:07.000Z,43
2023-04-10T15:02:34.000Z,43
2023-04-10T15:04:40.000Z,42
2023-04-10T15:06:07.000Z,43
2023-04-10T15:08:13.000Z,44
2023-04-10T15:09:39.000Z,41
2023-04-10T15:11:45.000Z,42
2023-04-10T15:13:12.000Z,42
2023-04-10T15:15:18.000Z,40
2023-04-10T15:16:44.000Z,43
2023-04-10T15:18:51.000Z,42
2023-04-10T15:21:42.000Z,43
2023-04-10T15:23:08.000Z,43
2023-04-10T15:25:15.000Z,41
2023-04-10T15:26:41.000Z,41
2023-04-10T15:28:47.000Z,43
2023-04-10T15:30:14.000Z,42
2023-04-10T15:32:20.000Z,42
2023-04-10T15:33:47.000Z,42
2023-04-10T15:35:53.000Z,40
2023-04-10T15:37:19.000Z,43
2023-04-10T15:39:26.000Z,43
2023-04-10T15:40:52.000Z,43
2023-04-10T15:42:58.000Z,41
2023-04-10T15:44:25.000Z,41
2023-04-10T15:46:31.000Z,41
2023-04-10T15:47:57.000Z,41
2023-04-10T15:50:04.000Z,42
2023-04-10T15:51:30.000Z,42
2023-04-10T15:53:36.000Z,40
2023-04-10T15:55:03.000Z,42
2023-04-10T15:57:09.000Z,40
2023-04-10T16:00:00.000Z,41
2023-04-10T16:01:27.000Z,42
2023-04-10T16:03:33.000Z,40
2023-04-10T16:05:00.000Z,42
2023-04-10T16:07:06.000Z,41
2023-04-10T16:08:33.000Z,40
2023-04-10T16:10:39.000Z,42
2023-04-10T16:12:05.000Z,42
2023-04-10T16:14:11.000Z,42
2023-04-10T16:15:38.000Z,42
2023-04-10T16:17:44.000Z,44
2023-04-10T16:19:11.000Z,44
2023-04-10T16:21:17.000Z,44
2023-04-10T16:22:43.000Z,44
2023-04-10T16:24:50.000Z,43
2023-04-10T16:26:16.000Z,43
2023-04-10T16:28:22.000Z,43
2023-04-10T16:29:49.000Z,43
2023-04-10T16:31:55.000Z,44
2023-04-10T16:33:22.000Z,44
2023-04-10T16:35:28.000Z,42
2023-04-10T16:38:19.000Z,45
2023-04-10T16:39:46.000Z,44
2023-04-10T16:41:52.000Z,43
2023-04-10T16:43:18.000Z,44
2023-04-10T16:45:24.000Z,44
2023-04-10T16:46:51.000Z,44
2023-04-10T16:48:57.000Z,43
2023-04-10T16:50:24.000Z,44
2023-04-10T16:52:30.000Z,43
2023-04-10T16:53:57.000Z,45
2023-04-10T16:56:03.000Z,44
2023-04-10T16:57:31.000Z,43
2023-04-10T16:59:37.000Z,44
2023-04-10T17:01:04.000Z,44
2023-04-10T17:03:10.000Z,44
2023-04-10T17:04:37.000Z,45
2023-04-10T17:06:43.000Z,44
2023-04-10T17:08:09.000Z,45
2023-04-10T17:10:15.000Z,46
2023-04-10T17:11:42.000Z,47
2023-04-10T17:13:48.000Z,45
2023-04-10T17:16:39.000Z,45
2023-04-10T17:18:06.000Z,45
2023-04-10T17:20:12.000Z,47
2023-04-10T17:21:39.000Z,47
2023-04-10T17:23:45.000Z,46
2023-04-10T17:25:11.000Z,45
2023-04-10T17:27:17.000Z,46
2023-04-10T17:28:44.000Z,47
2023-04-10T17:30:50.000Z,47
2023-04-10T17:32:16.000Z,47
2023-04-10T17:34:23.000Z,48
2023-04-10T17:35:49.000Z,46
2023-04-10T17:37:55.000Z,48
2023-04-10T17:39:22.000Z,47
2023-04-10T17:41:28.000Z,48
2023-04-10T17:42:54.000Z,48
2023-04-10T17:45:00.000Z,49
2023-04-10T17:46:27.000Z,47
2023-04-10T17:48:33.000Z,48
2023-04-10T17:50:00.000Z,49
2023-04-10T17:52:06.000Z,48
2023-04-10T17:54:57.000Z,49
2023-04-10T17:56:23.000Z,49
2023-04-10T17:58:30.000Z,49
2023-04-10T17:59:56.000Z,50
2023-04-10T18:02:02.000Z,49
2023-04-10T18:03:29.000Z,50
2023-04-10T18:05:35.000Z,50
2023-04-10T18:07:02.000Z,50
2023-04-10T18:09:08.000Z,50
2023-04-10T18:10:34.000Z,51
2023-04-10T18:12:40.000Z,51
2023-04-10T18:14:07.000Z,51
2023-04-10T18:16:13.000Z,51
2023-04-10T18:17:40.000Z,51
2023-04-10T18:19:46.000Z,51
2023-04-10T18:21:13.000Z,51
2023-04-10T18:23:19.000Z,52
2023-04-10T18:24:45.000Z,51
2023-04-10T18:26:51.000Z,52
2023-04-10T18:28:18.000Z,52
2023-04-10T18:30:26.000Z,52
2023-04-10T18:33:17.000Z,52
2023-04-10T18:34:44.000Z,53
2023-04-10T18:36:50.000Z,53
2023-04-10T18:38:16.000Z,53
2023-04-10T18:40:22.000Z,53
2023-04-10T18:41:49.000Z,54
2023-04-10T18:43:55.000Z,54
2023-04-10T18:45:31.000Z,52
2023-04-10T18:47:37.000Z,53
2023-04-10T18:49:04.000Z,52
2023-04-10T18:51:10.000Z,53
2023-04-10T18:52:36.000Z,52
2023-04-10T18:54:43.000Z,53
2023-04-10T18:56:09.000Z,52
2023-04-10T18:58:15.000Z,53
2023-04-10T18:59:42.000Z,51
2023-04-10T19:01:48.000Z,52
2023-04-10T19:03:15.000Z,52
2023-04-10T19:05:21.000Z,53
2023-04-10T19:06:47.000Z,52
2023-04-10T19:08:54.000Z,52
2023-04-10T19:11:45.000Z,52
2023-04-10T19:13:11.000Z,52
2023-04-10T19:15:17.000Z,51
2023-04-10T19:16:44.000Z,50
2023-04-10T19:18:50.000Z,50
2023-04-10T19:20:16.000Z,51
2023-04-10T19:22:57.000Z,51
2023-04-10T19:24:23.000Z,51
2023-04-10T19:26:29.000Z,50
2023-04-10T19:27:56.000Z,50
2023-04-10T19:30:02.000Z,50
2023-04-10T19:31:29.000Z,51
2023-04-10T19:33:35.000Z,49
2023-04-10T19:35:02.000Z,50
2023-04-10T19:37:08.000Z,49
2023-04-10T19:38:34.000Z,49
2023-04-10T19:40:40.000Z,51
2023-04-10T19:42:07.000Z,50
2023-04-10T19:44:13.000Z,50
2023-04-10T19:45:40.000Z,50
2023-04-10T19:47:46.000Z,50
2023-04-10T19:50:37.000Z,50
2023-04-10T19:52:04.000Z,51
2023-04-10T19:54:10.000Z,50
2023-04-10T19:55:36.000Z,50
2023-04-10T19:57:42.000Z,51
2023-04-10T19:59:09.000Z,51
2023-04-10T20:01:15.000Z,51
2023-04-10T20:02:41.000Z,51
2023-04-10T20:04:48.000Z,51
2023-04-10T20:06:15.000Z,51
2023-04-10T20:08:22.000Z,50
2023-04-10T20:09:48.000Z,51
2023-04-10T20:11:54.000Z,52
2023-04-10T20:13:21.000Z,51
2023-04-10T20:15:27.000Z,51
2023-04-10T20:16:54.000Z,50
2023-04-10T20:19:00.000Z,52
2023-04-10T20:20:26.000Z,51
2023-04-10T20:22:32.000Z,51
2023-04-10T20:23:59.000Z,51
2023-04-10T20:26:05.000Z,52
2023-04-10T20:28:56.000Z,52
2023-04-10T20:30:23.000Z,52
2023-04-10T20:32:29.000Z,51
2023-04-10T20:33:56.000Z,51
2023-04-10T20:36:02.000Z,52
2023-04-10T20:37:28.000Z,51
2023-04-10T20:39:34.000Z,52
2023-04-10T20:41:01.000Z,53
2023-04-10T20:43:07.000Z,52
2023-04-10T20:44:33.000Z,52
2023-04-10T20:46:40.000Z,52
2023-04-10T20:48:06.000Z,52
2023-04-10T20:50:12.000Z,53
2023-04-10T20:51:39.000Z,53
2023-04-10T20:53:45.000Z,53
2023-04-10T20:55:12.000Z,55
2023-04-10T20:57:18.000Z,54
2023-04-10T20:58:44.000Z,53
2023-04-10T21:00:51.000Z,53
2023-04-10T21:02:17.000Z,53
2023-04-10T21:04:24.000Z,53
2023-04-10T21:07:15.000Z,52
2023-04-10T21:08:41.000Z,52
2023-04-10T21:10:47.000Z,52
2023-04-10T21:12:14.000Z,52
2023-04-10T21:14:20.000Z,53
2023-04-10T21:15:47.000Z,52
2023-04-10T21:17:53.000Z,53
2023-04-10T21:19:19.000Z,53
2023-04-10T21:21:25.000Z,54
2023-04-10T21:22:52.000Z,55
2023-04-10T21:24:58.000Z,54
2023-04-10T21:26:24.000Z,60
2023-04-10T21:28:31.000Z,56
2023-04-10T21:29:57.000Z,58
2023-04-10T21:32:03.000Z,58
2023-04-10T21:33:30.000Z,59
2023-04-10T21:35:36.000Z,60
2023-04-10T21:37:03.000Z,60
2023-04-10T21:39:09.000Z,63
2023-04-10T21:40:35.000Z,62
2023-04-10T21:42:41.000Z,62
2023-04-10T21:45:32.000Z,63
2023-04-10T21:46:59.000Z,64
2023-04-10T21:49:05.000Z,67
2023-04-10T21:50:32.000Z,66
2023-04-10T21:52:38.000Z,66
2023-04-10T21:54:04.000Z,66
2023-04-10T21:56:10.000Z,66
2023-04-10T21:57:37.000Z,68
2023-04-10T21:59:43.000Z,68
2023-04-10T22:01:09.000Z,69
2023-04-10T22:03:16.000Z,68
2023-04-10T22:04:43.000Z,69
2023-04-10T22:07:00.000Z,68
2023-04-10T22:08:27.000Z,68
2023-04-10T22:10:33.000Z,69
2023-04-10T22:11:59.000Z,69
2023-04-10T22:14:05.000Z,70
2023-04-10T22:15:44.000Z,73
2023-04-10T22:17:50.000Z,71
2023-04-10T22:19:17.000Z,75
2023-04-10T22:21:23.000Z,74
2023-04-10T22:24:14.000Z,73
2023-04-10T22:25:41.000Z,72
2023-04-10T22:27:47.000Z,76
2023-04-10T22:29:13.000Z,76
2023-04-10T22:31:19.000Z,77
2023-04-10T22:32:46.000Z,77
2023-04-10T22:34:52.000Z,77
2023-04-10T22:36:19.000Z,79
2023-04-10T22:38:25.000Z,77
2023-04-10T22:39:51.000Z,79
2023-04-10T22:41:57.000Z,79
2023-04-10T22:43:24.000Z,79
2023-04-10T22:45:30.000Z,83
2023-04-10T22:46:56.000Z,83
2023-04-10T22:49:03.000Z,82
2023-04-10T22:50:29.000Z,85
2023-04-10T22:52:35.000Z,84
2023-04-10T22:54:02.000Z,84
2023-04-10T22:56:08.000Z,86
2023-04-10T22:57:34.000Z,83
2023-04-10T22:59:40.000Z,84
2023-04-10T23:02:32.000Z,87
2023-04-10T23:03:58.000Z,84
2023-04-10T23:06:05.000Z,86
2023-04-10T23:07:31.000Z,87
2023-04-10T23:09:37.000Z,87
2023-04-10T23:11:04.000Z,83
2023-04-10T23:13:10.000Z,84
2023-04-10T23:14:36.000Z,86
2023-04-10T23:16:42.000Z,84
2023-04-10T23:18:09.000Z,84
2023-04-10T23:20:15.000Z,85
2023-04-10T23:21:42.000Z,85
2023-04-10T23:23:48.000Z,84
2023-04-10T23:25:14.000Z,86
2023-04-10T23:27:20.000Z,86
2023-04-10T23:28:47.000Z,88
2023-04-10T23:30:53.000Z,89
2023-04-10T23:32:20.000Z,90
2023-04-10T23:34:26.000Z,91
2023-04-10T23:35:53.000Z,91
2023-04-10T23:37:59.000Z,91
2023-04-10T23:40:50.000Z,91
2023-04-10T23:42:16.000Z,94
2023-04-10T23:44:22.000Z,93
2023-04-10T23:45:49.000Z,94
2023-04-10T23:47:55.000Z,95
2023-04-10T23:49:22.000Z,96
2023-04-10T23:51:28.000Z,96
2023-04-10T23:52:54.000Z,97
2023-04-10T23:55:00.000Z,96
2023-04-10T23:56:27.000Z,97
2023-04-10T23:58:33.000Z,97
2023-04-10T23:59:59.000Z,97
